Time,TemperatureF,DewpointF,PressureIn,WindDirection,WindDirectionDegrees,WindSpeedMPH,WindSpeedGustMPH,Humidity,HourlyPrecipIn,Conditions,Clouds,dailyrainin,SolarRadiationWatts/m^2,SoftwareType,DateUTC
2014-01-06 00:00:00,46.5,45.7,29.99,SSE,160,2.0,5.0,97,0.00,-RA,,0.00,0.0,WeatherDisplay:10.37,2014-01-06 05:00:00,
2014-01-06 00:10:00,46.6,45.8,29.98,SE,146,2.0,6.0,97,0.00,-RA,,0.00,0.0,WeatherDisplay:10.37,2014-01-06 05:10:00,
2014-01-06 00:20:00,46.7,45.9,29.97,SSE,148,2.0,5.0,97,0.00,-RA,,0.00,0.0,WeatherDisplay:10.37,2014-01-06 05:20:00,
2014-01-06 00:30:00,46.7,45.9,29.96,SE,143,2.0,8.0,97,0.00,-RA,,0.00,0.0,WeatherDisplay:10.37,2014-01-06 05:30:00,
2014-01-06 00:40:00,46.7,45.9,29.96,SE,144,2.0,5.0,97,0.01,-RA,,0.01,0.0,WeatherDisplay:10.37,2014-01-06 05:40:00,
2014-01-06 00:50:00,46.9,46.1,29.94,SSE,165,2.0,7.0,97,0.01,-RA,,0.02,0.0,WeatherDisplay:10.37,2014-01-06 05:50:00,
2014-01-06 01:10:00,46.9,46.1,29.92,SSE,153,2.0,6.0,97,0.01,-RA,,0.03,0.0,WeatherDisplay:10.37,2014-01-06 06:10:00,
2014-01-06 01:20:00,47.5,46.7,29.92,ESE,120,5.0,12.0,97,0.00,OVC,,0.03,0.0,WeatherDisplay:10.37,2014-01-06 06:20:00,
2014-01-06 01:30:00,47.5,46.7,29.92,SE,133,1.0,12.0,97,0.00,OVC,,0.03,0.0,WeatherDisplay:10.37,2014-01-06 06:30:00,
2014-01-06 01:40:00,47.4,46.6,29.92,South,178,2.0,7.0,97,0.00,OVC,,0.03,0.0,WeatherDisplay:10.37,2014-01-06 06:40:00,
2014-01-06 01:50:00,47.3,46.5,29.92,SSE,157,2.0,5.0,97,0.00,OVC,,0.03,0.0,WeatherDisplay:10.37,2014-01-06 06:50:00,
2014-01-06 02:10:00,46.4,45.6,29.91,SE,142,2.0,5.0,97,0.00,,,0.03,0.0,WeatherDisplay:10.37,2014-01-06 07:10:00,
2014-01-06 02:20:00,46.7,45.9,29.90,SE,141,2.0,5.0,97,0.00,,,0.03,0.0,WeatherDisplay:10.37,2014-01-06 07:20:00,
2014-01-06 02:30:00,46.8,46.0,29.90,SSE,160,1.0,4.0,97,0.00,,,0.03,0.0,WeatherDisplay:10.37,2014-01-06 07:30:00,
2014-01-06 02:40:00,47.0,46.2,29.89,SSE,167,1.0,3.0,97,0.00,,,0.03,0.0,WeatherDisplay:10.37,2014-01-06 07:40:00,
2014-01-06 02:50:00,46.8,46.0,29.87,SSE,161,1.0,4.0,97,0.00,,,0.03,0.0,WeatherDisplay:10.37,2014-01-06 07:50:00,
2014-01-06 03:10:00,46.4,45.6,29.85,SSE,160,2.0,5.0,97,0.00,,,0.03,0.0,WeatherDisplay:10.37,2014-01-06 08:10:00,
2014-01-06 03:20:00,46.6,45.8,29.84,SSE,150,1.0,5.0,97,0.00,,,0.03,0.0,WeatherDisplay:10.37,2014-01-06 08:20:00,
2014-01-06 03:30:00,46.7,45.9,29.83,SE,140,2.0,3.0,97,0.00,,,0.03,0.0,WeatherDisplay:10.37,2014-01-06 08:30:00,
2014-01-06 03:40:00,47.0,46.2,29.82,SE,146,2.0,5.0,97,0.00,,,0.03,0.0,WeatherDisplay:10.37,2014-01-06 08:40:00,
2014-01-06 03:50:00,47.1,46.3,29.81,SSE,151,2.0,5.0,97,0.00,,,0.03,0.0,WeatherDisplay:10.37,2014-01-06 08:50:00,
2014-01-06 04:10:00,46.7,45.9,29.79,SSE,165,1.0,4.0,97,0.00,,,0.03,0.0,WeatherDisplay:10.37,2014-01-06 09:10:00,
2014-01-06 04:20:00,46.8,46.0,29.79,SSE,148,2.0,5.0,97,0.00,,,0.03,0.0,WeatherDisplay:10.37,2014-01-06 09:20:00,
2014-01-06 04:30:00,46.7,45.9,29.77,SSE,163,2.0,3.0,97,0.00,,,0.03,0.0,WeatherDisplay:10.37,2014-01-06 09:30:00,
2014-01-06 04:40:00,46.6,45.8,29.77,South,170,2.0,4.0,97,0.00,,,0.03,0.0,WeatherDisplay:10.37,2014-01-06 09:40:00,
2014-01-06 04:50:00,46.8,46.0,29.77,SSE,162,2.0,5.0,97,0.01,RA,,0.04,0.0,WeatherDisplay:10.37,2014-01-06 09:50:00,
2014-01-06 05:10:00,46.8,46.0,29.75,SSE,154,1.0,5.0,97,0.01,-RA,,0.05,0.0,WeatherDisplay:10.37,2014-01-06 10:10:00,
2014-01-06 05:20:00,47.1,46.3,29.75,SSE,152,1.0,3.0,97,0.00,-RA,,0.05,0.0,WeatherDisplay:10.37,2014-01-06 10:20:00,
2014-01-06 05:30:00,47.7,46.9,29.74,SE,139,1.0,3.0,97,0.02,-RA,,0.07,0.0,WeatherDisplay:10.37,2014-01-06 10:30:00,
2014-01-06 05:40:00,48.5,47.7,29.73,SE,145,2.0,4.0,97,0.00,-RA,,0.07,0.0,WeatherDisplay:10.37,2014-01-06 10:40:00,
2014-01-06 05:50:00,49.5,49.0,29.72,SSE,160,2.0,4.0,98,0.00,-RA,,0.07,0.0,WeatherDisplay:10.37,2014-01-06 10:50:00,
2014-01-06 06:10:00,51.8,51.3,29.71,SSE,147,2.0,9.0,98,0.00,-RA,,0.07,0.0,WeatherDisplay:10.37,2014-01-06 11:10:00,
2014-01-06 06:20:00,52.4,51.9,29.70,South,172,3.0,6.0,98,0.00,OVC,,0.07,0.0,WeatherDisplay:10.37,2014-01-06 11:20:00,
2014-01-06 06:30:00,52.5,51.9,29.70,South,169,3.0,12.0,98,0.00,OVC,,0.07,0.0,WeatherDisplay:10.37,2014-01-06 11:30:00,
2014-01-06 06:40:00,52.2,51.7,29.69,SSE,155,2.0,7.0,98,0.00,-RA,,0.07,0.0,WeatherDisplay:10.37,2014-01-06 11:40:00,
2014-01-06 06:50:00,51.7,51.2,29.69,SSE,164,2.0,6.0,98,0.00,-RA,,0.07,0.0,WeatherDisplay:10.37,2014-01-06 11:50:00,
2014-01-06 07:10:00,51.8,51.2,29.67,SSE,155,2.0,7.0,98,0.00,-RA,,0.07,0.0,WeatherDisplay:10.37,2014-01-06 12:10:00,
2014-01-06 07:20:00,51.0,50.5,29.66,SSE,148,2.0,5.0,98,0.00,-RA,,0.07,0.0,WeatherDisplay:10.37,2014-01-06 12:20:00,
2014-01-06 07:30:00,50.7,50.1,29.65,SSE,165,3.0,7.0,98,0.00,-RA,,0.07,0.0,WeatherDisplay:10.37,2014-01-06 12:30:00,
2014-01-06 07:40:00,51.3,50.8,29.65,SSE,149,2.0,6.0,98,0.00,OVC,,0.07,0.0,WeatherDisplay:10.37,2014-01-06 12:40:00,
2014-01-06 07:50:00,51.7,51.2,29.65,SSE,160,2.0,6.0,98,0.00,OVC,,0.07,0.0,WeatherDisplay:10.37,2014-01-06 12:50:00,
2014-01-06 08:10:00,51.5,50.9,29.64,South,171,2.0,7.0,98,0.00,-RA,,0.07,0.0,WeatherDisplay:10.37,2014-01-06 13:10:00,
2014-01-06 08:20:00,51.3,50.7,29.63,South,171,2.0,6.0,98,0.00,-RA,,0.07,0.0,WeatherDisplay:10.37,2014-01-06 13:20:00,
2014-01-06 08:30:00,51.0,50.4,29.63,SSE,168,3.0,6.0,98,0.01,-RA,,0.08,0.0,WeatherDisplay:10.37,2014-01-06 13:30:00,
2014-01-06 08:40:00,50.8,50.3,29.62,South,175,3.0,7.0,98,0.00,OVC,,0.08,0.0,WeatherDisplay:10.37,2014-01-06 13:40:00,
2014-01-06 08:50:00,50.5,49.7,29.62,SSE,149,2.0,7.0,97,0.00,OVC,,0.08,0.0,WeatherDisplay:10.37,2014-01-06 13:50:00,
2014-01-06 09:10:00,50.6,50.1,29.61,SSE,155,3.0,8.0,98,0.00,OVC,,0.08,0.0,WeatherDisplay:10.37,2014-01-06 14:10:00,
2014-01-06 09:20:00,50.9,50.3,29.60,SSE,155,2.0,7.0,98,0.00,OVC,,0.08,0.0,WeatherDisplay:10.37,2014-01-06 14:20:00,
2014-01-06 09:30:00,51.5,51.0,29.59,SSE,148,2.0,8.0,98,0.00,OVC,,0.08,0.0,WeatherDisplay:10.37,2014-01-06 14:30:00,
2014-01-06 09:40:00,51.8,51.3,29.58,SSE,153,3.0,6.0,98,0.00,OVC,,0.08,0.0,WeatherDisplay:10.37,2014-01-06 14:40:00,
2014-01-06 09:50:00,52.2,51.7,29.57,SSE,157,2.0,5.0,98,0.00,OVC,,0.08,0.0,WeatherDisplay:10.37,2014-01-06 14:50:00,
2014-01-06 10:20:00,54.1,53.5,29.54,South,189,3.0,10.0,98,0.00,OVC,,0.08,0.0,WeatherDisplay:10.37,2014-01-06 15:20:00,
2014-01-06 10:30:00,54.1,53.5,29.53,South,176,6.0,12.0,98,0.00,OVC,,0.08,0.0,WeatherDisplay:10.37,2014-01-06 15:30:00,
2014-01-06 10:40:00,54.5,53.9,29.52,South,185,7.0,12.0,98,0.00,OVC,,0.08,0.0,WeatherDisplay:10.37,2014-01-06 15:40:00,
2014-01-06 10:50:00,54.1,53.6,29.52,South,188,6.0,12.0,98,0.00,OVC,,0.08,0.0,WeatherDisplay:10.37,2014-01-06 15:50:00,
2014-01-06 11:20:00,54.7,54.1,29.48,South,187,7.0,12.0,98,0.00,-RA,,0.08,0.0,WeatherDisplay:10.37,2014-01-06 16:20:00,
2014-01-06 11:30:00,56.1,55.5,29.47,SSW,205,7.0,13.0,98,0.00,-RA,,0.08,0.0,WeatherDisplay:10.37,2014-01-06 16:30:00,
2014-01-06 11:40:00,56.1,55.5,29.46,SSW,202,5.0,14.0,98,0.00,-RA,,0.08,0.0,WeatherDisplay:10.37,2014-01-06 16:40:00,
2014-01-06 11:50:00,56.5,55.9,29.46,SSW,198,7.0,12.0,98,0.00,-RA,,0.08,0.0,WeatherDisplay:10.37,2014-01-06 16:50:00,
2014-01-06 12:20:00,56.7,56.1,29.44,SSW,205,9.0,20.0,98,0.00,-RA,,0.08,0.0,WeatherDisplay:10.37,2014-01-06 17:20:00,
2014-01-06 12:30:00,56.2,55.7,29.44,SW,215,8.0,15.0,98,0.00,-RA,,0.08,0.0,WeatherDisplay:10.37,2014-01-06 17:30:00,
2014-01-06 12:40:00,55.5,54.9,29.43,SW,216,8.0,14.0,98,0.00,-RA,,0.08,0.0,WeatherDisplay:10.37,2014-01-06 17:40:00,
2014-01-06 12:50:00,55.2,54.6,29.42,SSW,194,8.0,15.0,98,0.00,-RA,,0.08,0.0,WeatherDisplay:10.37,2014-01-06 17:50:00,
2014-01-06 13:20:00,54.5,53.9,29.42,SSW,197,3.0,14.0,98,0.00,OVC,,0.08,0.0,WeatherDisplay:10.37,2014-01-06 18:20:00,
2014-01-06 13:30:00,54.3,53.5,29.40,SSW,199,2.0,10.0,97,0.00,OVC,,0.08,0.0,WeatherDisplay:10.37,2014-01-06 18:30:00,
2014-01-06 13:40:00,54.1,53.3,29.40,South,185,2.0,5.0,97,0.00,OVC,,0.08,0.0,WeatherDisplay:10.37,2014-01-06 18:40:00,
2014-01-06 13:50:00,53.6,52.8,29.39,SSE,162,3.0,6.0,97,0.00,OVC,,0.08,0.0,WeatherDisplay:10.37,2014-01-06 18:50:00,
2014-01-06 14:00:00,53.2,52.4,29.39,SSW,194,3.0,7.0,97,0.00,OVC,,0.08,0.0,WeatherDisplay:10.37,2014-01-06 19:00:00,
2014-01-06 14:20:00,52.4,51.6,29.39,SSW,192,3.0,9.0,97,0.00,BKN,,0.08,0.0,WeatherDisplay:10.37,2014-01-06 19:20:00,
2014-01-06 14:30:00,51.8,51.0,29.40,SSW,205,3.0,6.0,97,0.00,BKN,,0.08,0.0,WeatherDisplay:10.37,2014-01-06 19:30:00,
2014-01-06 14:40:00,51.2,50.4,29.40,SSW,211,3.0,6.0,97,0.00,BKN,,0.08,0.0,WeatherDisplay:10.37,2014-01-06 19:40:00,
2014-01-06 14:50:00,50.8,49.9,29.42,SSW,202,5.0,7.0,97,0.00,-RA,,0.08,0.0,WeatherDisplay:10.37,2014-01-06 19:50:00,
2014-01-06 15:20:00,49.8,49.0,29.44,SSW,211,2.0,7.0,97,0.01,OVC,,0.09,0.0,WeatherDisplay:10.37,2014-01-06 20:20:00,
2014-01-06 15:30:00,49.6,48.8,29.43,SSW,211,2.0,6.0,97,0.01,RA,,0.10,0.0,WeatherDisplay:10.37,2014-01-06 20:30:00,
2014-01-06 15:40:00,48.9,48.1,29.43,WSW,257,0.0,5.0,97,0.00,OVC,,0.10,0.0,WeatherDisplay:10.37,2014-01-06 20:40:00,
2014-01-06 15:50:00,48.2,47.1,29.42,WSW,246,1.0,8.0,96,0.00,OVC,,0.10,0.0,WeatherDisplay:10.37,2014-01-06 20:50:00,
2014-01-06 16:00:00,47.3,46.2,29.41,SW,220,1.0,5.0,96,0.00,OVC,,0.10,0.0,WeatherDisplay:10.37,2014-01-06 21:00:00,
2014-01-06 16:40:00,44.8,43.8,29.44,SSW,201,1.0,7.0,96,0.01,-RA,,0.11,0.0,WeatherDisplay:10.37,2014-01-06 21:40:00,
2014-01-06 16:50:00,44.4,43.3,29.44,SSW,210,2.0,6.0,96,0.01,-RA,,0.12,0.0,WeatherDisplay:10.37,2014-01-06 21:50:00,
2014-01-06 17:30:00,42.9,41.6,29.44,SW,220,1.0,5.0,95,0.02,-RA,,0.14,0.0,WeatherDisplay:10.37,2014-01-06 22:30:00,
2014-01-06 17:40:00,42.8,41.7,29.45,SSW,213,1.0,4.0,96,0.00,-RA,,0.14,0.0,WeatherDisplay:10.37,2014-01-06 22:40:00,
2014-01-06 17:50:00,42.6,41.5,29.44,SSW,211,1.0,4.0,96,0.04,-RA,,0.18,0.0,WeatherDisplay:10.37,2014-01-06 22:50:00,
2014-01-06 18:30:00,41.6,40.3,29.46,SSW,213,2.0,5.0,95,0.01,-RA,,0.19,0.0,WeatherDisplay:10.37,2014-01-06 23:30:00,
2014-01-06 18:40:00,41.2,39.9,29.46,South,190,1.0,8.0,95,0.00,-RA,,0.19,0.0,WeatherDisplay:10.37,2014-01-06 23:40:00,
2014-01-06 18:50:00,39.8,37.4,29.48,WNW,286,7.0,13.0,91,0.00,-RA,,0.19,0.0,WeatherDisplay:10.37,2014-01-06 23:50:00,
2014-01-06 19:30:00,35.9,33.2,29.49,WNW,290,1.0,12.0,90,0.00,OVC,,0.19,0.0,WeatherDisplay:10.37,2014-01-07 00:30:00,
2014-01-06 19:40:00,35.7,33.1,29.48,NW,307,1.0,5.0,90,0.00,OVC,,0.19,0.0,WeatherDisplay:10.37,2014-01-07 00:40:00,
2014-01-06 19:50:00,35.6,33.0,29.48,WNW,287,1.0,6.0,90,0.00,OVC,,0.19,0.0,WeatherDisplay:10.37,2014-01-07 00:50:00,
2014-01-06 20:00:00,35.5,32.3,29.49,West,281,5.0,16.0,88,0.00,OVC,,0.19,0.0,WeatherDisplay:10.37,2014-01-07 01:00:00,
2014-01-06 20:30:00,34.5,29.0,29.50,WNW,292,2.0,12.0,80,0.00,OVC,,0.19,0.0,WeatherDisplay:10.37,2014-01-07 01:30:00,
2014-01-06 20:40:00,34.2,28.1,29.51,NW,305,1.0,8.0,78,0.00,OVC,,0.19,0.0,WeatherDisplay:10.37,2014-01-07 01:40:00,
2014-01-06 20:50:00,33.8,27.0,29.51,NW,315,3.0,6.0,76,0.00,OVC,,0.19,0.0,WeatherDisplay:10.37,2014-01-07 01:50:00,
2014-01-06 21:00:00,33.5,26.4,29.51,West,278,2.0,8.0,75,0.00,OVC,,0.19,0.0,WeatherDisplay:10.37,2014-01-07 02:00:00,
2014-01-06 21:30:00,32.8,25.4,29.53,WSW,258,2.0,10.0,74,0.00,OVC,,0.19,0.0,WeatherDisplay:10.37,2014-01-07 02:30:00,
2014-01-06 21:40:00,32.4,25.4,29.54,West,272,2.0,8.0,75,0.00,OVC,,0.19,0.0,WeatherDisplay:10.37,2014-01-07 02:40:00,
2014-01-06 21:50:00,32.2,24.2,29.54,West,266,2.0,10.0,72,0.00,OVC,,0.19,0.0,WeatherDisplay:10.37,2014-01-07 02:50:00,
2014-01-06 22:01:00,32.0,23.4,29.55,WNW,295,2.0,10.0,70,0.00,OVC,,0.19,0.0,WeatherDisplay:10.37,2014-01-07 03:01:00,
2014-01-06 22:30:00,31.4,22.8,29.56,WSW,242,2.0,12.0,70,0.00,OVC,,0.19,0.0,WeatherDisplay:10.37,2014-01-07 03:30:00,
2014-01-06 22:40:00,31.2,21.5,29.56,WNW,286,2.0,9.0,67,0.00,OVC,,0.19,0.0,WeatherDisplay:10.37,2014-01-07 03:40:00,
2014-01-06 22:50:00,30.9,20.9,29.56,WSW,249,3.0,16.0,66,0.00,OVC,,0.19,0.0,WeatherDisplay:10.37,2014-01-07 03:50:00,
2014-01-06 23:00:00,30.6,20.2,29.57,West,278,6.0,13.0,65,0.00,CLR,,0.19,0.0,WeatherDisplay:10.37,2014-01-07 04:00:00,
2014-01-06 23:10:00,30.4,20.0,29.57,WSW,255,2.0,13.0,65,0.00,CLR,,0.19,0.0,WeatherDisplay:10.37,2014-01-07 04:10:00,
2014-01-06 23:20:00,30.2,20.2,29.58,SSW,205,2.0,9.0,66,0.00,CLR,,0.19,0.0,WeatherDisplay:10.37,2014-01-07 04:20:00,
2014-01-06 23:30:00,30.1,19.0,29.57,SW,214,3.0,9.0,63,0.00,CLR,,0.19,0.0,WeatherDisplay:10.37,2014-01-07 04:30:00,
2014-01-06 23:40:00,30.1,18.3,29.58,West,266,5.0,12.0,61,0.00,CLR,,0.19,0.0,WeatherDisplay:10.37,2014-01-07 04:40:00,
2014-01-06 23:50:00,29.8,18.4,29.58,West,279,3.0,12.0,62,0.00,CLR,,0.19,0.0,WeatherDisplay:10.37,2014-01-07 04:50:00,